Main page
METAR-TAF:

METAR-TAF

Airports :

Memmingen, Germany

latitude: 47-59-33N, longitude: 10-14-37E, elevation: 633 m

Current weather observation

The report was made 30 minutes ago, at 09:50 UTC
Wind 11 kt from the Southwest
Temperature 4°C
Humidity 65%
Pressure 1020 hPa
Visibility 10 km or more
no clouds below 1500 m and no cumulonimbus

METAR: EDJA 060950Z 22011KT CAVOK 04/M02 Q1020

Time: 11:20 (10:20 UTC)

Forecast

The report was made 2 hours and 20 minutes ago, at 08:00 UTC
Forecast valid from 06 at 09 UTC to 06 at 18 UTC
Wind 11 kt from the Southwest
Visibility 10 km or more
no clouds below 1500 m and no cumulonimbus

TAF: EDJA 060800Z 0609/0618 23011KT CAVOK

Weather observations and forecasts of more than 4000 airports (METAR and TAF reports).

The available stations are represented by yellow and red dots on the map.

Hover mouse over dot to see the name of the station.

Then click to see weather observations and forecasts.

To change the map : click on the green buttons with a black cross to zoom in, on the green button with a dash to zoom out, or on the green arrows for adjacent maps.


METAR-TAF: